createdAt,value
2023-02-24T00:02:05.866Z,100073.56
2023-02-24T00:07:10.460Z,100076.13
2023-02-24T00:12:14.957Z,100061.75
2023-02-24T00:17:16.464Z,100055.09
2023-02-24T00:22:17.959Z,100056.00
2023-02-24T00:27:19.374Z,100051.19
2023-02-24T00:32:21.016Z,100046.97
2023-02-24T00:37:24.001Z,100052.06
2023-02-24T00:42:25.663Z,100046.16
2023-02-24T00:47:27.395Z,100045.38
2023-02-24T00:52:28.874Z,100055.44
2023-02-24T00:57:30.301Z,100047.84
2023-02-24T01:02:32.234Z,100038.13
2023-02-24T01:07:33.686Z,100045.94
2023-02-24T01:12:49.870Z,100051.13
2023-02-24T01:17:51.498Z,100047.75
2023-02-24T01:22:53.416Z,100046.13
2023-02-24T01:27:55.005Z,100035.38
2023-02-24T01:32:57.477Z,100031.25
2023-02-24T01:37:59.171Z,100028.88
2023-02-24T01:43:00.687Z,100025.59
2023-02-24T01:48:08.206Z,100016.44
2023-02-24T01:53:09.852Z,100013.94
2023-02-24T01:58:15.887Z,99999.53
2023-02-24T02:03:34.029Z,100002.81
2023-02-24T02:08:38.363Z,99990.81
2023-02-24T02:13:43.740Z,99976.56
2023-02-24T02:19:04.524Z,99981.00
2023-02-24T02:24:31.956Z,99961.66
2023-02-24T02:30:09.950Z,99955.94
2023-02-24T02:35:19.169Z,99965.31
2023-02-24T02:40:37.625Z,99962.59
2023-02-24T02:45:58.957Z,99959.88
2023-02-24T02:51:11.358Z,99959.81
2023-02-24T02:56:21.739Z,99953.88
2023-02-24T03:01:29.035Z,99956.41
2023-02-24T03:06:37.883Z,99955.44
2023-02-24T03:11:41.644Z,99940.19
2023-02-24T03:16:49.247Z,99933.63
2023-02-24T03:22:02.056Z,99940.41
2023-02-24T03:27:20.694Z,99929.59
2023-02-24T03:32:33.532Z,99935.59
2023-02-24T03:37:36.899Z,99938.00
2023-02-24T03:42:41.396Z,99938.97
2023-02-24T03:47:45.533Z,99928.84
2023-02-24T03:52:51.848Z,99932.97
2023-02-24T03:58:02.426Z,99932.00
2023-02-24T04:03:32.793Z,99930.25
2023-02-24T04:09:01.863Z,99930.31
2023-02-24T04:19:21.491Z,99932.50
2023-02-24T04:24:28.954Z,99922.50
2023-02-24T04:29:36.891Z,99919.13
2023-02-24T04:34:40.292Z,99913.22
2023-02-24T04:39:41.745Z,99907.22
2023-02-24T04:44:43.181Z,99890.31
2023-02-24T04:49:44.709Z,99884.63
2023-02-24T04:54:46.267Z,99875.34
2023-02-24T04:59:47.722Z,99876.25
2023-02-24T05:04:49.825Z,99865.91
2023-02-24T05:09:51.289Z,99858.34
2023-02-24T05:14:52.728Z,99861.53
2023-02-24T05:20:12.593Z,99854.19
2023-02-24T05:25:14.417Z,99849.94
2023-02-24T05:30:15.983Z,99845.16
2023-02-24T05:35:17.798Z,99836.75
2023-02-24T05:40:23.310Z,99834.09
2023-02-24T05:45:30.360Z,99820.44
2023-02-24T05:50:32.232Z,99815.47
2023-02-24T05:55:33.664Z,99811.47
2023-02-24T06:00:39.071Z,99813.91
2023-02-24T06:05:42.598Z,99795.25
2023-02-24T06:10:46.831Z,99798.19
2023-02-24T06:15:50.580Z,99795.91
2023-02-24T06:20:53.254Z,99786.78
2023-02-24T06:25:57.813Z,99783.19
2023-02-24T06:31:06.816Z,99777.78
2023-02-24T06:36:08.639Z,99781.63
2023-02-24T06:41:12.726Z,99778.97
2023-02-24T06:46:16.360Z,99772.81
2023-02-24T06:51:18.065Z,99773.41
2023-02-24T06:56:19.859Z,99784.25
2023-02-24T07:01:26.774Z,99783.03
2023-02-24T07:06:34.625Z,99788.13
2023-02-24T07:11:37.627Z,99777.91
2023-02-24T07:16:42.779Z,99775.28
2023-02-24T07:21:52.509Z,99775.19
2023-02-24T07:27:02.825Z,99774.41
2023-02-24T07:32:06.924Z,99772.69
2023-02-24T07:37:09.369Z,99774.22
2023-02-24T07:42:13.726Z,99762.03
2023-02-24T07:47:15.921Z,99757.38
2023-02-24T07:52:17.606Z,99756.28
2023-02-24T07:57:19.097Z,99762.44
2023-02-24T08:02:20.723Z,99754.84
2023-02-24T08:07:24.996Z,99753.91
2023-02-24T08:12:27.943Z,99742.94
2023-02-24T08:17:30.269Z,99747.91
2023-02-24T08:22:37.265Z,99751.44
2023-02-24T08:27:39.080Z,99747.22
2023-02-24T08:32:46.904Z,99737.44
2023-02-24T08:37:52.059Z,99729.25
2023-02-24T08:42:53.483Z,99727.31
2023-02-24T08:48:00.614Z,99720.16
2023-02-24T08:53:02.142Z,99723.41
2023-02-24T08:58:03.568Z,99721.13
2023-02-24T09:03:08.248Z,99715.41
2023-02-24T09:08:09.745Z,99713.09
2023-02-24T09:13:12.284Z,99716.28
2023-02-24T09:18:14.416Z,99707.53
2023-02-24T09:23:20.280Z,99705.56
2023-02-24T09:28:24.995Z,99711.78
2023-02-24T09:33:41.360Z,99702.41
2023-02-24T09:39:01.484Z,99696.41
2023-02-24T09:44:07.723Z,99695.91
2023-02-24T09:49:17.286Z,99687.63
2023-02-24T09:54:24.822Z,99681.53
2023-02-24T10:00:00.917Z,99678.09
2023-02-24T10:05:38.488Z,99672.94
2023-02-24T10:11:00.839Z,99667.63
2023-02-24T10:16:08.202Z,99668.78
2023-02-24T10:21:49.647Z,99665.00
2023-02-24T10:27:08.149Z,99651.03
2023-02-24T10:32:42.168Z,99646.81
2023-02-24T10:37:44.215Z,99646.91
2023-02-24T10:42:47.975Z,99634.88
2023-02-24T10:47:59.668Z,99631.97
2023-02-24T10:53:06.258Z,99613.84
2023-02-24T10:58:16.017Z,99612.44
2023-02-24T11:03:35.655Z,99599.13
2023-02-24T11:08:44.303Z,99595.72
2023-02-24T11:14:12.156Z,99574.22
2023-02-24T11:19:13.768Z,99565.72
2023-02-24T11:24:18.935Z,99559.31
2023-02-24T11:29:34.723Z,99551.44
2023-02-24T11:34:50.013Z,99536.47
2023-02-24T11:40:00.814Z,99527.56
2023-02-24T11:45:27.450Z,99508.78
2023-02-24T11:50:39.583Z,99492.56
2023-02-24T11:55:46.910Z,99474.91
2023-02-24T12:00:57.872Z,99468.31
2023-02-24T12:06:12.557Z,99468.31
2023-02-24T12:11:32.910Z,99466.97
2023-02-24T12:16:40.542Z,99452.81
2023-02-24T12:21:51.520Z,99440.53
2023-02-24T12:26:59.442Z,99439.63
2023-02-24T12:32:07.906Z,99431.59
2023-02-24T12:37:51.224Z,99423.44
2023-02-24T12:43:11.541Z,99417.09
2023-02-24T12:48:49.605Z,99411.63
2023-02-24T12:53:59.591Z,99414.44
2023-02-24T12:59:05.525Z,99401.44
2023-02-24T13:04:25.381Z,99395.84
2023-02-24T13:09:33.432Z,99384.66
2023-02-24T13:14:37.327Z,99375.56
2023-02-24T13:19:40.632Z,99357.72
2023-02-24T13:24:55.418Z,99354.25
2023-02-24T13:30:00.507Z,99355.66
2023-02-24T13:35:33.032Z,99345.59
2023-02-24T13:40:34.664Z,99336.78
2023-02-24T13:45:39.819Z,99327.16
2023-02-24T13:51:10.356Z,99321.91
2023-02-24T13:56:36.127Z,99314.75
2023-02-24T14:01:48.536Z,99304.31
2023-02-24T14:06:54.263Z,99295.53
2023-02-24T14:12:00.837Z,99306.22
2023-02-24T14:17:02.591Z,99290.66
2023-02-24T14:22:04.041Z,99284.13
2023-02-24T14:27:05.528Z,99273.50
2023-02-24T14:32:08.237Z,99273.91
2023-02-24T14:37:16.327Z,99266.41
2023-02-24T14:42:17.988Z,99261.72
2023-02-24T14:47:23.086Z,99242.38
2023-02-24T14:52:48.253Z,99233.25
2023-02-24T14:57:59.014Z,99245.06
2023-02-24T15:03:13.367Z,99248.53
2023-02-24T15:08:38.763Z,99235.72
2023-02-24T15:13:44.451Z,99236.94
2023-02-24T15:18:51.541Z,99238.66
2023-02-24T15:24:23.384Z,99229.50
2023-02-24T15:29:27.755Z,99222.69
2023-02-24T15:34:34.880Z,99214.56
2023-02-24T15:39:36.971Z,99218.00
2023-02-24T15:44:38.435Z,99212.00
2023-02-24T15:49:39.841Z,99208.63
2023-02-24T15:54:44.260Z,99213.94
2023-02-24T15:59:46.520Z,99211.41
2023-02-24T16:04:49.172Z,99190.13
2023-02-24T16:09:53.506Z,99190.22
2023-02-24T16:15:02.150Z,99183.41
2023-02-24T16:20:08.730Z,99177.44
2023-02-24T16:25:14.311Z,99165.00
2023-02-24T16:30:20.003Z,99174.69
2023-02-24T16:35:23.091Z,99176.47
2023-02-24T16:40:28.071Z,99175.16
2023-02-24T16:45:31.376Z,99177.75
2023-02-24T16:50:38.645Z,99182.09
2023-02-24T16:55:40.139Z,99181.22
2023-02-24T17:07:02.996Z,99187.31
2023-02-24T17:12:04.976Z,99193.94
2023-02-24T17:17:06.720Z,99194.34
2023-02-24T17:22:10.286Z,99186.13
2023-02-24T17:27:13.647Z,99181.38
2023-02-24T17:32:15.236Z,99180.09
2023-02-24T17:37:17.102Z,99183.75
2023-02-24T17:42:18.587Z,99171.78
2023-02-24T17:47:20.068Z,99183.00
2023-02-24T17:52:21.542Z,99193.41
2023-02-24T17:57:23.007Z,99198.38
2023-02-24T18:02:24.719Z,99207.53
2023-02-24T18:07:26.385Z,99192.53
2023-02-24T18:12:27.994Z,99193.22
2023-02-24T18:17:29.892Z,99210.88
2023-02-24T18:22:31.389Z,99212.44
2023-02-24T18:27:32.890Z,99211.97
2023-02-24T18:32:34.778Z,99218.16
2023-02-24T18:37:36.414Z,99224.19
2023-02-24T18:42:38.695Z,99215.69
2023-02-24T18:47:40.146Z,99225.28
2023-02-24T18:52:41.753Z,99227.09
2023-02-24T18:57:43.176Z,99222.13
2023-02-24T19:02:44.693Z,99225.56
2023-02-24T19:07:46.256Z,99223.97
2023-02-24T19:12:50.549Z,99228.50
2023-02-24T19:17:52.082Z,99229.56
2023-02-24T19:22:53.691Z,99217.59
2023-02-24T19:27:55.150Z,99214.84
2023-02-24T19:32:56.753Z,99211.44
2023-02-24T19:37:58.344Z,99220.69
2023-02-24T19:42:59.873Z,99219.78
2023-02-24T19:48:01.315Z,99211.34
2023-02-24T19:53:02.746Z,99212.91
2023-02-24T19:58:04.856Z,99220.53
2023-02-24T20:03:06.466Z,99224.72
2023-02-24T20:08:07.898Z,99228.09
2023-02-24T20:13:09.372Z,99234.91
2023-02-24T20:18:11.132Z,99235.78
2023-02-24T20:23:12.684Z,99236.72
2023-02-24T20:28:14.106Z,99241.00
2023-02-24T20:33:16.700Z,99243.69
2023-02-24T20:38:18.243Z,99251.34
2023-02-24T20:43:19.746Z,99252.38
2023-02-24T20:48:21.343Z,99258.50
2023-02-24T20:53:22.836Z,99262.03
2023-02-24T20:58:25.083Z,99260.78
2023-02-24T21:03:26.572Z,99264.72
2023-02-24T21:08:28.089Z,99267.75
2023-02-24T21:13:29.530Z,99263.06
2023-02-24T21:18:31.072Z,99271.44
2023-02-24T21:23:32.846Z,99274.63
2023-02-24T21:28:35.212Z,99283.94
2023-02-24T21:33:37.414Z,99285.59
2023-02-24T21:38:41.211Z,99294.84
2023-02-24T21:43:44.202Z,99299.28
2023-02-24T21:48:46.030Z,99303.78
2023-02-24T21:53:48.023Z,99307.19
2023-02-24T21:58:53.911Z,99315.31
2023-02-24T22:04:00.398Z,99314.75
2023-02-24T22:09:04.289Z,99325.44
2023-02-24T22:14:11.775Z,99324.56
2023-02-24T22:19:13.459Z,99321.78
2023-02-24T22:24:17.130Z,99318.38
2023-02-24T22:29:18.598Z,99322.66
2023-02-24T22:34:20.053Z,99324.22
2023-02-24T22:39:21.517Z,99332.81
2023-02-24T22:44:23.447Z,99337.00
2023-02-24T22:49:25.090Z,99333.63
2023-02-24T22:54:26.585Z,99334.56
2023-02-24T22:59:28.011Z,99335.47
2023-02-24T23:04:29.565Z,99331.28
2023-02-24T23:09:31.027Z,99339.72
2023-02-24T23:14:32.499Z,99352.47
2023-02-24T23:19:34.175Z,99346.63
2023-02-24T23:24:36.320Z,99344.28
2023-02-24T23:29:37.764Z,99345.28
2023-02-24T23:34:39.518Z,99366.53
2023-02-24T23:39:40.943Z,99379.34
2023-02-24T23:44:42.377Z,99381.16
2023-02-24T23:49:48.433Z,99376.91
2023-02-24T23:54:52.583Z,99379.50
2023-02-24T23:59:54.071Z,99389.66
